Terminal Aerodrome Forecast
Issued by NWS

Home | Current Version | Previous Version | Graphics & Text | Print | Product List | Glossary On
Versions: 1 2 3 4 5 6 7 8 9 10 11 12 13 14 15 16 17 18 19 20 21 22
000
FTUS43 KBIS 211242 AAA
TAFJMS
TAF AMD
KJMS 211242Z 2113/2212 35009KT P6SM SCT025
      TEMPO 2113/2116 BKN025
     FM211800 03008KT P6SM BKN110
     FM212300 06010KT P6SM SCT200
     FM220800 12010KT P6SM BKN090=

USA.gov is the U.S. government's official web portal to all federal, state and local government web resources and services.